Time;durP1;ratioP1;P1;durP2;ratioP2;P2;SDS_P1;SDS_P2;PMS_P1;PMS_P2;Temp;Humidity;BMP_temperature;BMP_pressure;BME280_temperature;BME280_humidity;BME280_pressure;Samples;Min_cycle;Max_cycle;Signal;HPM_P1;HPM_P2
2023/03/25 00:02:20;;;;;;;8.13;1.25;;;;;;;;;;6240313;22;20020;-83
2023/03/25 00:04:50;;;;;;;10.35;1.33;;;;;;;;;;6237230;22;20031;-83
2023/03/25 00:07:18;;;;;;;8.85;1.65;;;;;;;;;;6239651;22;20064;-84
2023/03/25 00:09:45;;;;;;;15.65;1.90;;;;;;;;;;6211887;22;21105;-83
2023/03/25 00:12:12;;;;;;;8.27;1.10;;;;;;;;;;6241021;22;20071;-84
2023/03/25 00:14:39;;;;;;;10.93;1.52;;;;;;;;;;6238802;22;20039;-83
2023/03/25 00:17:05;;;;;;;11.55;1.42;;;;;;;;;;6239471;22;20029;-82
2023/03/25 00:19:32;;;;;;;11.95;1.75;;;;;;;;;;6212340;22;20024;-83
2023/03/25 00:21:59;;;;;;;9.73;1.45;;;;;;;;;;6211456;22;20405;-83
2023/03/25 00:24:25;;;;;;;15.38;1.95;;;;;;;;;;6238935;22;20056;-83
2023/03/25 00:26:53;;;;;;;10.80;2.13;;;;;;;;;;6236785;22;20029;-83
2023/03/25 00:29:19;;;;;;;17.95;1.80;;;;;;;;;;6270140;22;20024;-83
2023/03/25 00:31:46;;;;;;;14.90;1.70;;;;;;;;;;6269464;22;20020;-83
2023/03/25 00:34:15;;;;;;;13.50;1.65;;;;;;;;;;6268786;22;20071;-83
2023/03/25 00:36:42;;;;;;;13.20;1.95;;;;;;;;;;6269358;22;20024;-83
2023/03/25 00:39:09;;;;;;;11.10;1.60;;;;;;;;;;6267190;22;20032;-83
2023/03/25 00:41:36;;;;;;;10.90;1.63;;;;;;;;;;6269888;22;20051;-83
2023/03/25 00:44:02;;;;;;;7.20;1.20;;;;;;;;;;6267911;22;20090;-84
2023/03/25 00:46:30;;;;;;;15.13;1.70;;;;;;;;;;6267612;22;20516;-83
2023/03/25 00:48:57;;;;;;;13.57;1.90;;;;;;;;;;6268193;22;20031;-83
2023/03/25 00:51:24;;;;;;;12.63;1.95;;;;;;;;;;6268894;22;20024;-83
2023/03/25 00:53:52;;;;;;;12.02;1.83;;;;;;;;;;6267774;22;20489;-83
2023/03/25 00:56:19;;;;;;;13.63;1.52;;;;;;;;;;6267472;22;20028;-83
2023/03/25 00:58:45;;;;;;;13.52;1.55;;;;;;;;;;6268722;22;20031;-83
2023/03/25 01:01:12;;;;;;;8.55;1.40;;;;;;;;;;6269451;22;20024;-83
2023/03/25 01:03:39;;;;;;;9.65;2.28;;;;;;;;;;6266195;22;20651;-83
2023/03/25 01:06:10;;;;;;;9.63;1.35;;;;;;;;;;6270648;22;20025;-83
2023/03/25 01:08:37;;;;;;;10.38;1.85;;;;;;;;;;6267650;22;20058;-83
2023/03/25 01:11:04;;;;;;;10.30;1.77;;;;;;;;;;6268816;22;20020;-83
2023/03/25 01:13:31;;;;;;;9.32;2.13;;;;;;;;;;6268093;22;20024;-83
2023/03/25 01:15:57;;;;;;;7.18;1.42;;;;;;;;;;6270264;22;20020;-83
2023/03/25 01:18:24;;;;;;;9.32;1.77;;;;;;;;;;6270553;22;20444;-84
2023/03/25 01:20:50;;;;;;;9.55;1.60;;;;;;;;;;6269667;22;20028;-83
2023/03/25 01:23:16;;;;;;;9.65;1.77;;;;;;;;;;6268441;22;20028;-83
2023/03/25 01:25:43;;;;;;;10.48;1.40;;;;;;;;;;6270972;22;20027;-83
2023/03/25 01:28:09;;;;;;;8.82;1.63;;;;;;;;;;6269787;22;20019;-83
2023/03/25 01:30:35;;;;;;;12.52;1.60;;;;;;;;;;6243120;22;20020;-84
2023/03/25 01:33:02;;;;;;;10.50;1.50;;;;;;;;;;6269827;22;20066;-83
2023/03/25 01:35:28;;;;;;;15.85;1.80;;;;;;;;;;6271204;22;20028;-83
2023/03/25 01:37:55;;;;;;;13.27;2.25;;;;;;;;;;6243699;22;20020;-83
2023/03/25 01:40:23;;;;;;;13.98;2.10;;;;;;;;;;6268728;22;20481;-84
2023/03/25 01:42:49;;;;;;;9.75;1.30;;;;;;;;;;6269203;22;20537;-83
2023/03/25 01:45:19;;;;;;;8.50;1.33;;;;;;;;;;6242634;22;20025;-84
2023/03/25 01:47:47;;;;;;;9.07;1.83;;;;;;;;;;6270248;22;20060;-83
2023/03/25 01:50:13;;;;;;;13.88;2.17;;;;;;;;;;6269779;22;20462;-83
2023/03/25 01:52:46;;;;;;;14.48;2.20;;;;;;;;;;6269357;22;20416;-84
2023/03/25 01:55:13;;;;;;;11.25;2.20;;;;;;;;;;6270569;22;20054;-83
2023/03/25 01:57:42;;;;;;;12.75;1.40;;;;;;;;;;6269915;22;20535;-83
2023/03/25 02:00:09;;;;;;;10.05;1.42;;;;;;;;;;6241111;22;20032;-83
2023/03/25 02:02:39;;;;;;;14.38;2.17;;;;;;;;;;6269437;22;20024;-84
2023/03/25 02:05:12;;;;;;;10.63;1.30;;;;;;;;;;6268180;22;20031;-83
2023/03/25 02:07:41;;;;;;;13.13;1.52;;;;;;;;;;6269041;22;20086;-83
2023/03/25 02:10:09;;;;;;;11.30;2.10;;;;;;;;;;6269107;22;20074;-83
2023/03/25 02:12:36;;;;;;;12.20;1.55;;;;;;;;;;6269845;22;20060;-83
2023/03/25 02:15:04;;;;;;;9.73;1.67;;;;;;;;;;6241236;22;20028;-83
2023/03/25 02:17:34;;;;;;;14.27;2.10;;;;;;;;;;6269093;22;20020;-83
2023/03/25 02:20:19;;;;;;;10.88;1.90;;;;;;;;;;6267824;22;20488;-84
2023/03/25 02:22:48;;;;;;;10.07;1.60;;;;;;;;;;6238907;22;20039;-84
2023/03/25 02:25:34;;;;;;;16.40;1.80;;;;;;;;;;6240384;22;20468;-83
2023/03/25 02:28:00;;;;;;;11.20;1.80;;;;;;;;;;6263530;22;20126;-84
2023/03/25 02:30:30;;;;;;;10.40;1.70;;;;;;;;;;6267123;22;20028;-84
2023/03/25 02:33:15;;;;;;;12.90;1.92;;;;;;;;;;6264995;22;20032;-84
2023/03/25 02:36:00;;;;;;;9.48;2.03;;;;;;;;;;6265914;22;20111;-84
2023/03/25 02:38:46;;;;;;;10.77;2.00;;;;;;;;;;6265790;22;20078;-84
2023/03/25 02:41:20;;;;;;;10.18;1.73;;;;;;;;;;6266543;22;20032;-83
2023/03/25 02:43:55;;;;;;;14.35;1.80;;;;;;;;;;6265838;22;20034;-84
2023/03/25 02:46:24;;;;;;;18.23;2.05;;;;;;;;;;6265947;22;20401;-85
2023/03/25 02:49:14;;;;;;;9.65;1.95;;;;;;;;;;6266316;22;20517;-84
2023/03/25 02:51:45;;;;;;;13.02;1.88;;;;;;;;;;6264212;22;20028;-83
2023/03/25 02:54:12;;;;;;;15.07;2.20;;;;;;;;;;6265110;22;20028;-84
2023/03/25 02:56:40;;;;;;;6.05;1.40;;;;;;;;;;6266911;22;20465;-83
2023/03/25 02:59:08;;;;;;;9.55;1.60;;;;;;;;;;6266038;22;20117;-84
2023/03/25 03:01:38;;;;;;;8.57;1.70;;;;;;;;;;6268284;22;20024;-86
2023/03/25 03:04:05;;;;;;;15.88;1.90;;;;;;;;;;6265627;22;20039;-84
2023/03/25 03:06:36;;;;;;;15.32;1.67;;;;;;;;;;6264915;22;20048;-83
2023/03/25 03:09:05;;;;;;;13.35;2.25;;;;;;;;;;6265362;22;20020;-83
2023/03/25 03:11:50;;;;;;;8.75;1.70;;;;;;;;;;6266190;22;20031;-83
2023/03/25 03:14:26;;;;;;;14.60;2.17;;;;;;;;;;6265525;22;20024;-82
2023/03/25 03:17:11;;;;;;;12.98;2.45;;;;;;;;;;6266313;22;20060;-83
2023/03/25 03:19:48;;;;;;;13.30;2.28;;;;;;;;;;6267282;22;20024;-83
2023/03/25 03:22:20;;;;;;;12.07;2.15;;;;;;;;;;6266279;22;20491;-83
2023/03/25 03:24:52;;;;;;;14.40;2.45;;;;;;;;;;6263219;22;20094;-83
2023/03/25 03:27:32;;;;;;;12.65;3.45;;;;;;;;;;6264608;22;20059;-83
2023/03/25 03:30:10;;;;;;;10.82;2.38;;;;;;;;;;6238702;22;20034;-83
2023/03/25 03:32:40;;;;;;;14.85;3.28;;;;;;;;;;6267330;22;20024;-83
2023/03/25 03:35:10;;;;;;;13.32;2.60;;;;;;;;;;6239114;22;20020;-83
2023/03/25 03:37:40;;;;;;;13.77;3.10;;;;;;;;;;6266619;22;20078;-83
2023/03/25 03:40:09;;;;;;;21.48;4.00;;;;;;;;;;6239692;22;20081;-83
2023/03/25 03:42:38;;;;;;;11.60;3.40;;;;;;;;;;6266623;22;20083;-83
2023/03/25 03:45:07;;;;;;;11.52;3.28;;;;;;;;;;6264727;22;20024;-83
2023/03/25 03:47:38;;;;;;;16.70;3.78;;;;;;;;;;6265604;22;20028;-84
2023/03/25 03:50:08;;;;;;;15.90;3.58;;;;;;;;;;6266622;22;20063;-83
2023/03/25 03:52:41;;;;;;;10.73;2.80;;;;;;;;;;6239532;22;20028;-83
2023/03/25 03:55:12;;;;;;;9.55;2.60;;;;;;;;;;6265807;22;20074;-83
2023/03/25 03:57:39;;;;;;;;;;;;;;;;;;6240281;22;20012;-83
2023/03/25 04:00:17;;;;;;;9.77;2.28;;;;;;;;;;6265628;22;45715;-83
2023/03/25 04:02:46;;;;;;;13.63;2.72;;;;;;;;;;6267287;22;20674;-83
2023/03/25 04:05:15;;;;;;;16.90;2.55;;;;;;;;;;6265710;22;20024;-83
2023/03/25 04:07:44;;;;;;;14.32;2.25;;;;;;;;;;6265532;22;20028;-83
2023/03/25 04:10:33;;;;;;;13.50;2.13;;;;;;;;;;6265905;22;20063;-83
2023/03/25 04:13:03;;;;;;;15.50;2.67;;;;;;;;;;6214801;22;20027;-83
2023/03/25 04:15:30;;;;;;;16.55;3.35;;;;;;;;;;6266977;22;20031;-83
2023/03/25 04:17:56;;;;;;;19.63;3.10;;;;;;;;;;6264923;22;20035;-83
2023/03/25 04:20:25;;;;;;;18.42;3.30;;;;;;;;;;6265748;22;20075;-82
2023/03/25 04:22:51;;;;;;;16.17;2.72;;;;;;;;;;6238251;22;20028;-83
2023/03/25 04:25:20;;;;;;;16.35;3.55;;;;;;;;;;6267343;22;20021;-83
2023/03/25 04:27:48;;;;;;;11.85;2.88;;;;;;;;;;6265713;22;20556;-83
2023/03/25 04:30:17;;;;;;;11.48;2.92;;;;;;;;;;6239312;22;20103;-83
2023/03/25 04:32:46;;;;;;;14.77;2.72;;;;;;;;;;6266898;22;20074;-83
2023/03/25 04:35:13;;;;;;;12.20;2.92;;;;;;;;;;6239704;22;20032;-83
2023/03/25 04:37:40;;;;;;;16.63;3.55;;;;;;;;;;6267767;22;20038;-83
2023/03/25 04:40:08;;;;;;;11.48;2.80;;;;;;;;;;6240849;22;20063;-83
2023/03/25 04:42:36;;;;;;;15.80;2.60;;;;;;;;;;6267496;22;20819;-82
2023/03/25 04:45:06;;;;;;;14.07;3.10;;;;;;;;;;6267159;22;20036;-83
2023/03/25 04:47:32;;;;;;;13.13;3.10;;;;;;;;;;6240339;22;20035;-82
2023/03/25 04:49:59;;;;;;;19.30;3.25;;;;;;;;;;6267974;22;20073;-82
2023/03/25 04:52:25;;;;;;;15.90;2.75;;;;;;;;;;6268139;22;20024;-83
2023/03/25 04:54:51;;;;;;;14.73;2.85;;;;;;;;;;6266685;22;20024;-82
2023/03/25 04:57:19;;;;;;;16.75;3.08;;;;;;;;;;6266853;22;20038;-82
2023/03/25 04:59:45;;;;;;;13.15;3.10;;;;;;;;;;6268491;22;20016;-82
2023/03/25 05:02:12;;;;;;;17.52;3.00;;;;;;;;;;6268719;22;20058;-83
2023/03/25 05:04:46;;;;;;;17.85;3.10;;;;;;;;;;6239434;22;20055;-82
2023/03/25 05:07:14;;;;;;;11.82;2.40;;;;;;;;;;6266099;22;20026;-82
2023/03/25 05:09:41;;;;;;;16.48;2.38;;;;;;;;;;6240865;22;20044;-82
2023/03/25 05:12:10;;;;;;;9.05;1.98;;;;;;;;;;6267541;22;20100;-82
2023/03/25 05:14:36;;;;;;;14.98;2.38;;;;;;;;;;6241052;22;20020;-82
2023/03/25 05:17:02;;;;;;;13.32;1.98;;;;;;;;;;6268636;22;20107;-83
2023/03/25 05:19:29;;;;;;;17.52;2.50;;;;;;;;;;6268608;22;20024;-82
2023/03/25 05:21:55;;;;;;;11.80;1.83;;;;;;;;;;6266875;22;20024;-83
2023/03/25 05:24:21;;;;;;;11.38;2.22;;;;;;;;;;6266211;22;20054;-83
2023/03/25 05:26:48;;;;;;;18.92;3.05;;;;;;;;;;6267033;22;20030;-83
2023/03/25 05:29:15;;;;;;;14.05;2.13;;;;;;;;;;6239850;22;20031;-83
2023/03/25 05:31:43;;;;;;;9.73;1.90;;;;;;;;;;6266368;22;20024;-82
2023/03/25 05:34:10;;;;;;;13.50;2.25;;;;;;;;;;6266517;22;20093;-82
2023/03/25 05:36:36;;;;;;;12.25;1.90;;;;;;;;;;6266380;22;20038;-83
2023/03/25 05:39:04;;;;;;;8.85;1.60;;;;;;;;;;6240032;22;20361;-82
2023/03/25 05:41:37;;;;;;;12.50;2.38;;;;;;;;;;6266889;22;20086;-83
2023/03/25 05:44:05;;;;;;;16.40;2.22;;;;;;;;;;6266004;22;20052;-83
2023/03/25 05:46:31;;;;;;;11.82;2.55;;;;;;;;;;6239746;22;20031;-83
2023/03/25 05:48:59;;;;;;;15.88;2.50;;;;;;;;;;6266028;22;20021;-83
2023/03/25 05:51:27;;;;;;;10.55;2.10;;;;;;;;;;6267025;22;20100;-83
2023/03/25 05:53:53;;;;;;;17.75;2.22;;;;;;;;;;6268057;22;20032;-86
2023/03/25 05:56:23;;;;;;;12.45;2.15;;;;;;;;;;6275391;22;20104;-84
2023/03/25 05:58:50;;;;;;;16.15;2.90;;;;;;;;;;6266517;22;20024;-83
2023/03/25 06:01:18;;;;;;;12.07;1.98;;;;;;;;;;6265797;22;20106;-83
2023/03/25 06:04:00;;;;;;;11.52;2.50;;;;;;;;;;6241669;22;20032;-83
2023/03/25 06:06:28;;;;;;;12.43;2.58;;;;;;;;;;6239361;22;20529;-83
2023/03/25 06:08:54;;;;;;;16.88;2.30;;;;;;;;;;6238463;22;20035;-83
2023/03/25 06:11:21;;;;;;;16.88;1.92;;;;;;;;;;6241260;22;20058;-84
2023/03/25 06:13:50;;;;;;;13.82;2.83;;;;;;;;;;6238311;22;20107;-83
2023/03/25 06:16:18;;;;;;;23.02;3.08;;;;;;;;;;6266029;22;20063;-84
2023/03/25 06:18:49;;;;;;;18.90;2.92;;;;;;;;;;6239306;22;20453;-83
2023/03/25 06:21:16;;;;;;;19.92;2.97;;;;;;;;;;6244943;22;20943;-84
2023/03/25 06:23:43;;;;;;;13.32;2.05;;;;;;;;;;6267256;22;20018;-84
2023/03/25 06:26:09;;;;;;;12.68;2.95;;;;;;;;;;6270922;22;20013;-84
2023/03/25 06:28:36;;;;;;;15.13;2.30;;;;;;;;;;6249386;22;20105;-83
2023/03/25 06:31:05;;;;;;;10.70;2.20;;;;;;;;;;6274144;22;20028;-84
2023/03/25 06:33:32;;;;;;;22.95;2.80;;;;;;;;;;6275741;22;20025;-84
2023/03/25 06:36:10;;;;;;;10.77;2.70;;;;;;;;;;6274330;22;20032;-83
2023/03/25 06:38:37;;;;;;;14.40;2.55;;;;;;;;;;6274339;22;20921;-84
2023/03/25 06:41:06;;;;;;;16.45;2.42;;;;;;;;;;6272551;22;20020;-84
2023/03/25 06:43:32;;;;;;;14.30;2.05;;;;;;;;;;6244049;22;20072;-84
2023/03/25 06:45:59;;;;;;;14.98;2.05;;;;;;;;;;6271964;22;20516;-84
2023/03/25 06:48:26;;;;;;;17.48;2.63;;;;;;;;;;6275479;22;20024;-85
2023/03/25 06:50:52;;;;;;;14.80;2.45;;;;;;;;;;6247702;22;20896;-84
2023/03/25 06:53:18;;;;;;;15.90;3.13;;;;;;;;;;6273577;22;20024;-84
2023/03/25 06:55:45;;;;;;;12.40;1.95;;;;;;;;;;6274397;22;20027;-84
2023/03/25 06:58:12;;;;;;;15.65;2.00;;;;;;;;;;6249317;22;20043;-84
2023/03/25 07:00:38;;;;;;;17.27;2.47;;;;;;;;;;6273434;22;20008;-84
2023/03/25 07:03:05;;;;;;;14.88;1.98;;;;;;;;;;6271054;22;20454;-84
2023/03/25 07:05:31;;;;;;;16.67;2.40;;;;;;;;;;6243339;22;20024;-83
2023/03/25 07:07:58;;;;;;;14.95;2.78;;;;;;;;;;6268753;22;20028;-84
2023/03/25 07:10:24;;;;;;;15.48;2.22;;;;;;;;;;6272722;22;20013;-85
2023/03/25 07:12:51;;;;;;;14.25;2.42;;;;;;;;;;6270604;22;20062;-84
2023/03/25 07:15:17;;;;;;;8.85;1.90;;;;;;;;;;6270476;22;20024;-84
2023/03/25 07:17:47;;;;;;;15.55;2.25;;;;;;;;;;6272576;22;20024;-83
2023/03/25 07:20:14;;;;;;;17.65;2.45;;;;;;;;;;6247615;22;20099;-84
2023/03/25 07:22:42;;;;;;;15.98;2.60;;;;;;;;;;6245215;22;20039;-84
2023/03/25 07:25:09;;;;;;;10.98;2.13;;;;;;;;;;6271530;22;20028;-84
2023/03/25 07:27:35;;;;;;;15.43;2.55;;;;;;;;;;6273237;22;20027;-84
2023/03/25 07:30:03;;;;;;;17.98;2.42;;;;;;;;;;6245180;22;20036;-85
2023/03/25 07:32:29;;;;;;;11.93;2.10;;;;;;;;;;6273650;22;20103;-84
2023/03/25 07:34:56;;;;;;;9.65;1.88;;;;;;;;;;6243120;22;20894;-84
2023/03/25 07:37:23;;;;;;;18.73;2.83;;;;;;;;;;6271473;22;20035;-83
2023/03/25 07:39:49;;;;;;;13.32;2.30;;;;;;;;;;6271006;22;20028;-84
2023/03/25 07:42:16;;;;;;;18.58;2.35;;;;;;;;;;6270377;22;20014;-85
2023/03/25 07:44:42;;;;;;;15.02;2.78;;;;;;;;;;6240241;22;20892;-83
2023/03/25 07:47:09;;;;;;;15.48;2.40;;;;;;;;;;6271014;22;20028;-82
2023/03/25 07:49:35;;;;;;;7.75;2.05;;;;;;;;;;6273342;22;20032;-83
2023/03/25 07:52:02;;;;;;;12.13;2.55;;;;;;;;;;6272248;22;20063;-83
2023/03/25 07:54:28;;;;;;;17.77;2.75;;;;;;;;;;6272864;22;20017;-83
2023/03/25 07:56:55;;;;;;;14.77;2.33;;;;;;;;;;6271589;22;20035;-83
2023/03/25 07:59:21;;;;;;;14.15;3.05;;;;;;;;;;6271640;22;20480;-83
2023/03/25 08:01:48;;;;;;;17.35;3.08;;;;;;;;;;6272021;22;20024;-82
2023/03/25 08:04:14;;;;;;;21.50;3.40;;;;;;;;;;6271829;22;20143;-83
2023/03/25 08:06:41;;;;;;;14.25;2.47;;;;;;;;;;6245570;22;20543;-83
2023/03/25 08:09:07;;;;;;;17.35;2.60;;;;;;;;;;6245029;22;20024;-83
2023/03/25 08:11:34;;;;;;;13.02;2.38;;;;;;;;;;6273405;22;20066;-83
2023/03/25 08:14:00;;;;;;;16.20;2.58;;;;;;;;;;6271490;22;20020;-82
2023/03/25 08:16:27;;;;;;;17.48;2.63;;;;;;;;;;6246393;22;20112;-83
2023/03/25 08:18:53;;;;;;;14.55;2.17;;;;;;;;;;6245040;22;20028;-83
2023/03/25 08:21:26;;;;;;;27.13;3.42;;;;;;;;;;6270881;22;20020;-84
2023/03/25 08:23:57;;;;;;;22.10;2.60;;;;;;;;;;6272213;22;20067;-80
2023/03/25 08:26:25;;;;;;;16.30;3.10;;;;;;;;;;6247293;22;20028;-83
2023/03/25 08:28:53;;;;;;;21.33;2.88;;;;;;;;;;6271125;22;20071;-83
2023/03/25 08:31:20;;;;;;;22.17;3.33;;;;;;;;;;6270526;22;20075;-84
2023/03/25 08:33:47;;;;;;;16.67;2.50;;;;;;;;;;6269698;22;20024;-83
2023/03/25 08:36:18;;;;;;;17.98;2.20;;;;;;;;;;6268323;22;20034;-83
2023/03/25 08:38:45;;;;;;;19.25;2.17;;;;;;;;;;6268472;22;20024;-84
2023/03/25 08:41:12;;;;;;;18.13;2.47;;;;;;;;;;6272182;22;20016;-83
2023/03/25 08:43:39;;;;;;;23.73;2.80;;;;;;;;;;6267863;22;20078;-83
2023/03/25 08:46:05;;;;;;;20.27;2.50;;;;;;;;;;6268935;22;20941;-83
2023/03/25 08:48:32;;;;;;;15.45;2.45;;;;;;;;;;6269076;22;20095;-83
2023/03/25 08:50:58;;;;;;;18.80;2.95;;;;;;;;;;6271229;22;20995;-83
2023/03/25 08:53:25;;;;;;;18.08;2.65;;;;;;;;;;6269440;22;20461;-83
2023/03/25 08:55:52;;;;;;;18.33;3.10;;;;;;;;;;6270784;22;20086;-83
2023/03/25 08:58:19;;;;;;;20.83;2.85;;;;;;;;;;6269151;22;20028;-82
2023/03/25 09:00:46;;;;;;;23.40;2.47;;;;;;;;;;6269392;22;20024;-84
2023/03/25 09:03:12;;;;;;;18.73;2.50;;;;;;;;;;6267608;22;20086;-84
2023/03/25 09:05:39;;;;;;;20.30;2.95;;;;;;;;;;6270788;22;20846;-82
2023/03/25 09:08:06;;;;;;;17.25;2.63;;;;;;;;;;6269876;22;20115;-82
2023/03/25 09:10:32;;;;;;;25.08;2.70;;;;;;;;;;6270841;22;20028;-81
2023/03/25 09:13:02;;;;;;;21.05;3.33;;;;;;;;;;6269659;22;20070;-81
2023/03/25 09:15:28;;;;;;;21.70;2.63;;;;;;;;;;6266958;22;20067;-82
2023/03/25 09:17:55;;;;;;;20.33;3.15;;;;;;;;;;6269230;22;20028;-83
2023/03/25 09:20:21;;;;;;;23.30;3.03;;;;;;;;;;6267461;22;20099;-83
2023/03/25 09:22:48;;;;;;;25.80;3.47;;;;;;;;;;6268406;22;20555;-81
2023/03/25 09:25:15;;;;;;;30.50;3.35;;;;;;;;;;6268433;22;20027;-81
2023/03/25 09:27:41;;;;;;;20.55;3.60;;;;;;;;;;6269444;22;20047;-81
2023/03/25 09:30:08;;;;;;;14.80;2.30;;;;;;;;;;6267592;22;20030;-80
2023/03/25 09:32:35;;;;;;;28.65;2.92;;;;;;;;;;6270884;22;20030;-80
2023/03/25 09:35:02;;;;;;;18.13;3.05;;;;;;;;;;6269211;22;20016;-80
2023/03/25 09:37:28;;;;;;;17.17;3.03;;;;;;;;;;6270432;22;20027;-81
2023/03/25 09:39:56;;;;;;;25.80;3.95;;;;;;;;;;6270238;22;20477;-80
2023/03/25 09:42:29;;;;;;;25.23;2.80;;;;;;;;;;6269816;22;20103;-82
2023/03/25 09:45:01;;;;;;;15.55;2.65;;;;;;;;;;6270043;22;20059;-81
2023/03/25 09:47:38;;;;;;;18.92;2.97;;;;;;;;;;6270268;22;20725;-80
2023/03/25 09:50:09;;;;;;;23.80;3.10;;;;;;;;;;6271632;22;20864;-80
2023/03/25 09:52:41;;;;;;;23.20;3.10;;;;;;;;;;6244539;22;20024;-80
2023/03/25 09:55:10;;;;;;;20.23;3.45;;;;;;;;;;6269306;22;20087;-81
2023/03/25 09:57:43;;;;;;;21.77;3.25;;;;;;;;;;6270473;22;20016;-81
2023/03/25 10:00:15;;;;;;;20.60;2.95;;;;;;;;;;6270678;22;20016;-81
2023/03/25 10:02:45;;;;;;;23.55;3.20;;;;;;;;;;6269757;22;20103;-80
2023/03/25 10:05:18;;;;;;;20.52;3.20;;;;;;;;;;6270059;22;20039;-82
2023/03/25 10:07:49;;;;;;;20.42;3.22;;;;;;;;;;6244130;22;21288;-80
2023/03/25 10:10:15;;;;;;;;;;;;;;;;;;6243045;22;20047;-81
2023/03/25 10:12:57;;;;;;;20.90;3.35;;;;;;;;;;6269682;22;45065;-81
2023/03/25 10:15:26;;;;;;;21.23;2.95;;;;;;;;;;6270000;22;20035;-81
2023/03/25 10:18:11;;;;;;;18.17;2.92;;;;;;;;;;6270184;22;20067;-82
2023/03/25 10:20:53;;;;;;;21.20;3.15;;;;;;;;;;6270212;22;20039;-81
2023/03/25 10:23:25;;;;;;;15.30;3.67;;;;;;;;;;6270201;22;20028;-81
2023/03/25 10:25:55;;;;;;;22.83;3.92;;;;;;;;;;6270187;22;20831;-81
2023/03/25 10:28:26;;;;;;;18.13;2.97;;;;;;;;;;6270758;22;21068;-81
2023/03/25 10:30:53;;;;;;;25.48;3.17;;;;;;;;;;6270605;22;20028;-80
2023/03/25 10:33:27;;;;;;;15.65;2.45;;;;;;;;;;6269183;22;20016;-81
2023/03/25 10:35:55;;;;;;;20.05;3.35;;;;;;;;;;6243615;22;20031;-81
2023/03/25 10:38:23;;;;;;;18.48;3.05;;;;;;;;;;6267955;22;20027;-81
2023/03/25 10:40:51;;;;;;;14.55;2.47;;;;;;;;;;6270128;22;20024;-81
2023/03/25 10:43:31;;;;;;;22.30;2.47;;;;;;;;;;6267518;22;20104;-81
2023/03/25 10:46:06;;;;;;;24.48;3.45;;;;;;;;;;6242440;22;20099;-80
2023/03/25 10:48:32;;;;;;;20.10;3.20;;;;;;;;;;6270427;22;20465;-81
2023/03/25 10:51:05;;;;;;;20.23;2.50;;;;;;;;;;6270894;22;20032;-80
2023/03/25 10:53:32;;;;;;;15.68;3.13;;;;;;;;;;6268458;22;20024;-81
2023/03/25 10:56:02;;;;;;;14.15;2.55;;;;;;;;;;6267726;22;20090;-81
2023/03/25 10:58:33;;;;;;;21.42;3.75;;;;;;;;;;6248635;22;20076;-82
2023/03/25 11:01:00;;;;;;;;;;;;;;;;;;6242670;22;20028;-82
2023/03/25 11:03:30;;;;;;;19.58;2.92;;;;;;;;;;6241410;22;47181;-82
2023/03/25 11:05:57;;;;;;;17.15;2.83;;;;;;;;;;6269501;22;20664;-82
2023/03/25 11:08:24;;;;;;;16.77;2.30;;;;;;;;;;6269867;22;20020;-83
2023/03/25 11:10:55;;;;;;;18.92;2.70;;;;;;;;;;6269241;22;20934;-82
2023/03/25 11:13:26;;;;;;;15.30;2.85;;;;;;;;;;6269929;22;20035;-82
2023/03/25 11:15:54;;;;;;;31.13;8.13;;;;;;;;;;6269749;22;20138;-82
2023/03/25 11:18:26;;;;;;;24.52;5.63;;;;;;;;;;6269834;22;20012;-82
2023/03/25 11:20:55;;;;;;;24.77;3.75;;;;;;;;;;6242195;22;20131;-82
2023/03/25 11:23:32;;;;;;;14.27;2.75;;;;;;;;;;6241566;22;20032;-82
2023/03/25 11:26:07;;;;;;;16.63;2.58;;;;;;;;;;6267880;22;20091;-82
2023/03/25 11:28:47;;;;;;;16.13;2.85;;;;;;;;;;6269956;22;20839;-82
2023/03/25 11:31:17;;;;;;;19.73;2.97;;;;;;;;;;6269826;22;20039;-83
2023/03/25 11:33:45;;;;;;;18.75;3.97;;;;;;;;;;6240621;22;20024;-81
2023/03/25 11:36:16;;;;;;;17.42;2.97;;;;;;;;;;6267645;22;20937;-82
2023/03/25 11:38:45;;;;;;;17.35;3.08;;;;;;;;;;6268189;22;20047;-82
2023/03/25 11:41:12;;;;;;;17.88;1.98;;;;;;;;;;6268846;22;20473;-82
2023/03/25 11:43:39;;;;;;;21.50;2.83;;;;;;;;;;6268961;22;20059;-82
2023/03/25 11:46:10;;;;;;;15.25;2.47;;;;;;;;;;6266622;22;20824;-82
2023/03/25 11:48:37;;;;;;;11.60;2.13;;;;;;;;;;6269051;22;20907;-81
2023/03/25 11:51:11;;;;;;;13.45;2.40;;;;;;;;;;6264467;22;20028;-81
2023/03/25 11:53:42;;;;;;;16.70;2.50;;;;;;;;;;6238868;22;20031;-81
2023/03/25 11:56:09;;;;;;;;;;;;;;;;;;6268652;22;20043;-83
2023/03/25 11:58:36;;;;;;;18.73;2.80;;;;;;;;;;6243811;22;47247;-81
2023/03/25 12:01:04;;;;;;;18.73;3.28;;;;;;;;;;6271178;22;20024;-81
2023/03/25 12:03:32;;;;;;;16.58;2.42;;;;;;;;;;6242219;22;20029;-82
2023/03/25 12:06:11;;;;;;;15.30;2.67;;;;;;;;;;6243149;22;20047;-80
2023/03/25 12:08:48;;;;;;;15.05;2.60;;;;;;;;;;6269055;22;20024;-81
2023/03/25 12:11:20;;;;;;;17.42;2.28;;;;;;;;;;6269632;22;20063;-82
2023/03/25 12:13:56;;;;;;;12.68;1.85;;;;;;;;;;6242782;22;20096;-81
2023/03/25 12:16:33;;;;;;;13.95;2.63;;;;;;;;;;6269079;22;20020;-82
2023/03/25 12:19:22;;;;;;;18.42;2.58;;;;;;;;;;6271100;22;20028;-81
2023/03/25 12:22:03;;;;;;;10.38;2.15;;;;;;;;;;6270554;22;20448;-81
2023/03/25 12:24:48;;;;;;;16.92;2.17;;;;;;;;;;6269156;22;20030;-81
2023/03/25 12:27:27;;;;;;;10.52;2.20;;;;;;;;;;6268586;22;20031;-82
2023/03/25 12:30:12;;;;;;;12.70;1.92;;;;;;;;;;6270818;22;20020;-81
2023/03/25 12:33:05;;;;;;;13.65;2.10;;;;;;;;;;6268610;22;20052;-80
2023/03/25 12:35:46;;;;;;;12.90;1.85;;;;;;;;;;6214205;22;20102;-81
2023/03/25 12:38:18;;;;;;;14.35;2.10;;;;;;;;;;6270018;22;20024;-81
2023/03/25 12:40:50;;;;;;;17.05;2.60;;;;;;;;;;6270577;22;20032;-80
2023/03/25 12:43:21;;;;;;;15.32;1.88;;;;;;;;;;6268199;22;20048;-81
2023/03/25 12:46:08;;;;;;;13.50;2.28;;;;;;;;;;6266874;22;20024;-81
2023/03/25 12:48:34;;;;;;;13.30;1.98;;;;;;;;;;6243164;22;20090;-80
2023/03/25 12:51:16;;;;;;;8.52;2.20;;;;;;;;;;6269849;22;20491;-80
2023/03/25 12:53:47;;;;;;;15.18;2.10;;;;;;;;;;6268720;22;20111;-81
2023/03/25 12:56:32;;;;;;;16.73;2.25;;;;;;;;;;6269684;22;20024;-81
2023/03/25 12:59:17;;;;;;;19.42;2.15;;;;;;;;;;6270382;22;20028;-81
2023/03/25 13:01:43;;;;;;;11.82;1.63;;;;;;;;;;6270302;22;20032;-79
2023/03/25 13:04:21;;;;;;;10.00;1.80;;;;;;;;;;6268346;22;20510;-80
2023/03/25 13:06:47;;;;;;;14.13;2.08;;;;;;;;;;6269960;22;20024;-80
2023/03/25 13:09:19;;;;;;;13.82;1.85;;;;;;;;;;6272848;22;20032;-80
2023/03/25 13:12:09;;;;;;;11.88;2.67;;;;;;;;;;6245626;22;20020;-78
2023/03/25 13:14:38;;;;;;;12.40;1.80;;;;;;;;;;6271083;22;20758;-78
2023/03/25 13:17:07;;;;;;;10.73;1.50;;;;;;;;;;6271458;22;20028;-78
2023/03/25 13:19:38;;;;;;;11.70;1.92;;;;;;;;;;6272894;22;20020;-78
2023/03/25 13:22:24;;;;;;;13.23;1.70;;;;;;;;;;6270367;22;20103;-78
2023/03/25 13:24:54;;;;;;;12.52;1.92;;;;;;;;;;6270322;22;20020;-78
2023/03/25 13:27:21;;;;;;;11.93;1.98;;;;;;;;;;6270344;22;20027;-79
2023/03/25 13:29:53;;;;;;;10.63;1.88;;;;;;;;;;6272202;22;20008;-78
2023/03/25 13:32:23;;;;;;;12.25;1.90;;;;;;;;;;6271392;22;20036;-79
2023/03/25 13:35:08;;;;;;;8.05;1.75;;;;;;;;;;6269955;22;20028;-78
2023/03/25 13:37:39;;;;;;;7.07;1.40;;;;;;;;;;6272221;22;20028;-78
2023/03/25 13:40:12;;;;;;;12.18;1.88;;;;;;;;;;6271607;22;20035;-78
2023/03/25 13:42:54;;;;;;;7.93;1.67;;;;;;;;;;6269030;22;20039;-79
2023/03/25 13:45:21;;;;;;;13.90;1.75;;;;;;;;;;6269091;22;20031;-78
2023/03/25 13:48:05;;;;;;;10.55;1.85;;;;;;;;;;6267634;22;20417;-79
2023/03/25 13:50:35;;;;;;;10.18;1.50;;;;;;;;;;6271444;22;20448;-79
2023/03/25 13:53:15;;;;;;;14.45;1.42;;;;;;;;;;6240768;22;20103;-78
2023/03/25 13:55:45;;;;;;;8.48;1.35;;;;;;;;;;6241593;22;20819;-78
2023/03/25 13:58:21;;;;;;;14.40;1.38;;;;;;;;;;6272338;22;20728;-79
2023/03/25 14:01:07;;;;;;;8.45;1.48;;;;;;;;;;6271117;22;20024;-79
2023/03/25 14:03:40;;;;;;;11.60;1.58;;;;;;;;;;6269856;22;20067;-78
2023/03/25 14:06:22;;;;;;;9.48;1.60;;;;;;;;;;6273242;22;20063;-80
2023/03/25 14:08:51;;;;;;;6.85;1.27;;;;;;;;;;6272097;22;20020;-81
2023/03/25 14:11:26;;;;;;;7.32;1.30;;;;;;;;;;6269057;22;20024;-80
2023/03/25 14:14:03;;;;;;;10.73;1.70;;;;;;;;;;6269516;22;20055;-80
2023/03/25 14:16:33;;;;;;;13.57;1.80;;;;;;;;;;6277783;22;20020;-80
2023/03/25 14:19:06;;;;;;;8.43;1.73;;;;;;;;;;6246454;22;20893;-80
2023/03/25 14:21:41;;;;;;;7.60;1.33;;;;;;;;;;6276184;22;20013;-80
2023/03/25 14:24:10;;;;;;;6.80;1.20;;;;;;;;;;6274299;22;20008;-79
2023/03/25 14:26:41;;;;;;;9.57;1.52;;;;;;;;;;6275787;22;20828;-80
2023/03/25 14:29:11;;;;;;;4.55;1.08;;;;;;;;;;6247725;22;20027;-81
2023/03/25 14:31:38;;;;;;;9.40;1.20;;;;;;;;;;6274425;22;20015;-80
2023/03/25 14:34:04;;;;;;;10.27;1.92;;;;;;;;;;6272551;22;20110;-80
2023/03/25 14:36:41;;;;;;;6.97;1.35;;;;;;;;;;6245803;22;20074;-80
2023/03/25 14:39:08;;;;;;;8.65;2.05;;;;;;;;;;6245126;22;20036;-80
2023/03/25 14:41:53;;;;;;;13.18;1.67;;;;;;;;;;6271903;22;20039;-80
2023/03/25 14:44:20;;;;;;;11.25;1.98;;;;;;;;;;6270654;22;20028;-80
2023/03/25 14:46:46;;;;;;;9.52;2.30;;;;;;;;;;6271714;22;20024;-80
2023/03/25 14:49:21;;;;;;;11.07;1.85;;;;;;;;;;6271672;22;20036;-80
2023/03/25 14:51:49;;;;;;;14.73;1.90;;;;;;;;;;6244429;22;20036;-80